Time;durP1;ratioP1;P1;durP2;ratioP2;P2;SDS_P1;SDS_P2;PMS_P1;PMS_P2;Temp;Humidity;BMP_temperature;BMP_pressure;BME280_temperature;BME280_humidity;BME280_pressure;Samples;Min_cycle;Max_cycle;Signal;HPM_P1;HPM_P2
2023/03/22 00:01:36;;;;;;;0.00;0.00;;;;;;;8.72;100.00;99086.19;4991659;28;20029;-77
2023/03/22 00:04:11;;;;;;;0.00;0.00;;;;;;;8.62;100.00;99061.75;4985933;28;20721;-74
2023/03/22 00:06:36;;;;;;;0.00;0.00;;;;;;;8.67;100.00;99105.28;4988018;28;20044;-74
2023/03/22 00:09:27;;;;;;;0.00;0.00;;;;;;;8.56;100.00;99058.25;4962319;28;20034;-75
2023/03/22 00:18:56;;;;;;;0.00;0.00;;;;;;;8.51;100.00;99020.97;4952024;29;20179;-75
2023/03/22 00:21:30;;;;;;;0.00;0.00;;;;;;;8.53;100.00;99039.75;4899047;29;20047;-74
2023/03/22 00:24:05;;;;;;;;;;;;;;;;;;;;;
2023/03/22 00:26:41;;;;;;;0.00;0.00;;;;;;;8.64;100.00;99051.34;4975524;28;20034;-72
2023/03/22 00:29:06;;;;;;;0.00;0.00;;;;;;;8.56;100.00;99026.34;4991121;28;20049;-73
2023/03/22 00:31:32;;;;;;;0.00;0.00;;;;;;;8.53;100.00;99016.03;4988683;28;20034;-72
2023/03/22 00:34:00;;;;;;;0.00;0.00;;;;;;;8.54;100.00;99006.75;4981989;28;20414;-72
2023/03/22 00:36:28;;;;;;;0.00;0.00;;;;;;;8.54;100.00;98987.69;4994343;28;20038;-74
2023/03/22 00:38:53;;;;;;;0.00;0.00;;;;;;;8.52;100.00;98998.06;4975678;28;20033;-74
2023/03/22 00:41:27;;;;;;;0.00;0.00;;;;;;;8.51;100.00;98982.81;4968891;28;20038;-73
2023/03/22 00:43:53;;;;;;;0.00;0.00;;;;;;;8.54;100.00;98979.53;4984964;28;20072;-73
2023/03/22 00:46:22;;;;;;;0.00;0.00;;;;;;;8.64;100.00;99000.38;4982294;28;20034;-75
2023/03/22 00:48:47;;;;;;;0.00;0.00;;;;;;;8.54;100.00;98990.41;4994599;28;20472;-74
2023/03/22 00:51:14;;;;;;;0.00;0.00;;;;;;;8.58;100.00;98987.13;4986227;28;20030;-76
2023/03/22 00:53:40;;;;;;;0.10;0.10;;;;;;;8.63;100.00;98992.50;4991782;28;20427;-74
2023/03/22 00:56:09;;;;;;;0.00;0.00;;;;;;;8.63;100.00;98990.59;4975205;28;20019;-74
2023/03/22 00:58:37;;;;;;;0.00;0.00;;;;;;;8.61;100.00;98972.91;4991304;28;20030;-73
2023/03/22 01:01:03;;;;;;;0.00;0.00;;;;;;;8.68;100.00;98995.19;5006422;28;20033;-76
2023/03/22 01:03:28;;;;;;;0.00;0.00;;;;;;;8.57;100.00;98983.56;4949915;28;20038;-74
2023/03/22 01:05:56;;;;;;;0.00;0.00;;;;;;;8.55;100.00;98942.97;4989824;28;20021;-74
2023/03/22 01:08:31;;;;;;;0.00;0.00;;;;;;;8.54;100.00;98982.25;4992785;28;20037;-74
2023/03/22 01:10:57;;;;;;;0.00;0.00;;;;;;;8.52;100.00;98945.47;4992982;28;20022;-74
2023/03/22 01:13:23;;;;;;;0.00;0.00;;;;;;;8.61;100.00;98967.47;4989886;28;20079;-74
2023/03/22 01:15:51;;;;;;;0.00;0.00;;;;;;;8.50;100.00;98926.69;4985102;28;20698;-74
2023/03/22 01:18:19;;;;;;;0.00;0.00;;;;;;;8.53;100.00;98926.13;4977063;28;20034;-74
2023/03/22 01:20:47;;;;;;;0.00;0.00;;;;;;;8.53;100.00;98939.75;4979885;28;20041;-74
2023/03/22 01:23:12;;;;;;;0.00;0.00;;;;;;;8.57;100.00;98956.31;4988948;28;20026;-74
2023/03/22 01:25:38;;;;;;;0.00;0.00;;;;;;;8.51;100.00;98941.94;4986064;28;20033;-74
2023/03/22 01:28:05;;;;;;;0.00;0.00;;;;;;;8.48;100.00;98937.06;4973518;28;20030;-74
2023/03/22 01:30:34;;;;;;;0.00;0.00;;;;;;;8.58;100.00;98946.25;4990261;28;20028;-74
2023/03/22 01:32:59;;;;;;;0.00;0.00;;;;;;;8.56;100.00;98932.91;4969030;28;20164;-74
2023/03/22 01:35:27;;;;;;;0.00;0.00;;;;;;;8.50;100.00;98934.88;4991310;28;20030;-75
2023/03/22 01:37:53;;;;;;;0.00;0.00;;;;;;;8.49;100.00;98911.44;4972213;28;20569;-74
2023/03/22 01:40:19;;;;;;;0.00;0.00;;;;;;;8.39;100.00;98906.88;4992745;28;20041;-74
2023/03/22 01:42:49;;;;;;;0.00;0.00;;;;;;;8.50;100.00;98902.19;4966948;28;20026;-76
2023/03/22 01:45:17;;;;;;;0.00;0.00;;;;;;;8.50;100.00;98901.38;4987921;28;20050;-75
2023/03/22 01:47:42;;;;;;;0.00;0.00;;;;;;;8.54;100.00;98911.41;4970087;28;20035;-74
2023/03/22 01:50:19;;;;;;;;;;;;;;;;;;;;;
2023/03/22 01:52:44;;;;;;;0.00;0.00;;;;;;;8.38;100.00;98872.59;4980629;28;20037;-73
2023/03/22 01:55:11;;;;;;;0.00;0.00;;;;;;;8.48;100.00;98879.03;4971591;28;20023;-74
2023/03/22 01:57:37;;;;;;;0.00;0.00;;;;;;;8.39;100.00;98862.50;4970740;28;20061;-73
2023/03/22 02:00:14;;;;;;;0.00;0.00;;;;;;;8.48;100.00;98865.41;4968841;28;20026;-72
2023/03/22 02:02:42;;;;;;;0.00;0.00;;;;;;;8.43;100.00;98852.66;4968859;28;20021;-74
2023/03/22 02:05:08;;;;;;;0.00;0.00;;;;;;;8.42;100.00;98861.13;4986731;28;20040;-74
2023/03/22 02:07:36;;;;;;;0.00;0.00;;;;;;;8.48;100.00;98873.59;4983714;28;20027;-74
2023/03/22 02:10:02;;;;;;;0.00;0.00;;;;;;;8.48;100.00;98866.22;4966775;28;20111;-74
2023/03/22 02:12:36;;;;;;;0.00;0.00;;;;;;;8.58;100.00;98865.31;4973236;28;20535;-73
2023/03/22 02:15:08;;;;;;;;;;;;;;;8.60;100.00;98862.28;4971892;28;20044;-74
2023/03/22 02:17:45;;;;;;;0.00;0.00;;;;;;;8.61;100.00;98858.47;4971002;28;19910;-74
2023/03/22 02:20:14;;;;;;;0.00;0.00;;;;;;;8.63;100.00;98880.78;4976113;28;20507;-74
2023/03/22 02:23:01;;;;;;;0.00;0.00;;;;;;;8.54;100.00;98866.97;4971913;28;20032;-74
2023/03/22 02:25:42;;;;;;;0.00;0.00;;;;;;;8.56;100.00;98846.53;4972369;28;20113;-75
2023/03/22 02:28:40;;;;;;;0.00;0.00;;;;;;;8.55;100.00;98844.88;4961044;28;20030;-74
2023/03/22 02:31:47;;;;;;;0.00;0.00;;;;;;;8.52;100.00;98840.03;4960781;28;20389;-74
2023/03/22 02:34:53;;;;;;;0.00;0.00;;;;;;;8.50;100.00;98842.25;4959216;28;20043;-75
2023/03/22 02:37:39;;;;;;;0.00;0.00;;;;;;;8.50;100.00;98836.00;4969426;28;20428;-76
2023/03/22 02:40:38;;;;;;;0.00;0.00;;;;;;;8.37;100.00;98815.69;4980839;28;20026;-75
2023/03/22 02:43:39;;;;;;;0.00;0.00;;;;;;;8.40;100.00;98809.66;4968029;28;20034;-75
2023/03/22 02:46:10;;;;;;;0.00;0.00;;;;;;;8.55;100.00;98816.84;4962467;28;20256;-75
2023/03/22 02:49:19;;;;;;;0.00;0.00;;;;;;;8.54;100.00;98847.91;4966714;28;20057;-74
2023/03/22 02:52:16;;;;;;;0.00;0.00;;;;;;;8.44;100.00;98805.28;4920417;29;20043;-75
2023/03/22 02:55:00;;;;;;;0.00;0.00;;;;;;;8.56;100.00;98823.94;4976282;28;20030;-75
2023/03/22 02:57:36;;;;;;;0.00;0.00;;;;;;;8.58;100.00;98793.66;4975461;28;20036;-75
2023/03/22 03:00:10;;;;;;;0.00;0.00;;;;;;;8.49;100.00;98813.38;4970687;28;20045;-76
2023/03/22 03:02:38;;;;;;;0.00;0.00;;;;;;;8.48;100.00;98828.09;4967772;28;20027;-76
2023/03/22 03:05:13;;;;;;;0.00;0.00;;;;;;;8.53;100.00;98797.28;4964522;28;20026;-76
2023/03/22 03:07:45;;;;;;;0.00;0.00;;;;;;;8.45;100.00;98787.00;4983262;28;20022;-75
2023/03/22 03:10:17;;;;;;;0.00;0.00;;;;;;;8.55;100.00;98779.50;4962790;28;20027;-75
2023/03/22 03:12:45;;;;;;;0.00;0.00;;;;;;;8.45;100.00;98776.09;4967142;28;20054;-75
2023/03/22 03:15:20;;;;;;;0.00;0.00;;;;;;;8.52;100.00;98771.91;4953848;28;20034;-75
2023/03/22 03:18:19;;;;;;;0.00;0.00;;;;;;;8.54;100.00;98807.03;4976999;28;20030;-74
2023/03/22 03:20:59;;;;;;;0.00;0.00;;;;;;;8.44;100.00;98774.44;4984873;28;20033;-75
2023/03/22 03:24:02;;;;;;;0.00;0.00;;;;;;;8.42;100.00;98769.28;4989166;28;20026;-75
2023/03/22 03:26:36;;;;;;;0.00;0.00;;;;;;;8.49;100.00;98801.66;4978221;28;20018;-75
2023/03/22 03:29:27;;;;;;;0.00;0.00;;;;;;;8.39;100.00;98764.44;4969335;28;20487;-75
2023/03/22 03:32:07;;;;;;;0.00;0.00;;;;;;;8.44;100.00;98783.47;4971960;28;20034;-75
2023/03/22 03:34:50;;;;;;;0.00;0.00;;;;;;;8.49;100.00;98786.13;4968466;28;20057;-75
2023/03/22 03:37:40;;;;;;;0.00;0.00;;;;;;;8.28;100.00;98741.16;4962779;28;20384;-75
2023/03/22 03:40:23;;;;;;;0.00;0.00;;;;;;;8.35;100.00;98752.50;4976064;28;20026;-74
2023/03/22 03:42:56;;;;;;;0.00;0.00;;;;;;;8.45;100.00;98787.81;4982487;28;20035;-74
2023/03/22 03:45:25;;;;;;;0.00;0.00;;;;;;;8.34;100.00;98868.00;4974352;28;20097;-74
2023/03/22 03:47:55;;;;;;;0.00;0.00;;;;;;;8.30;100.00;98750.66;4982590;28;20326;-75
2023/03/22 03:50:29;;;;;;;0.00;0.00;;;;;;;8.34;100.00;98768.03;4970215;28;20023;-75
2023/03/22 03:52:56;;;;;;;0.00;0.00;;;;;;;8.36;100.00;98760.38;4978333;28;20077;-75
2023/03/22 03:55:33;;;;;;;0.00;0.00;;;;;;;8.31;100.00;98759.63;4950334;28;20121;-75
2023/03/22 03:58:01;;;;;;;0.00;0.00;;;;;;;8.18;100.00;98732.00;4978208;28;20050;-75
2023/03/22 04:00:27;;;;;;;0.00;0.00;;;;;;;8.31;100.00;98765.06;4966436;28;20381;-76
2023/03/22 04:02:52;;;;;;;0.00;0.00;;;;;;;8.30;100.00;98750.66;4971165;28;20030;-75
2023/03/22 04:05:17;;;;;;;0.00;0.00;;;;;;;8.41;100.00;98762.25;4956109;28;20038;-74
2023/03/22 04:07:43;;;;;;;0.00;0.00;;;;;;;8.42;100.00;98763.84;4971025;28;20030;-75
2023/03/22 04:10:16;;;;;;;0.00;0.00;;;;;;;8.39;100.00;98740.72;4956754;28;20104;-75
2023/03/22 04:12:41;;;;;;;0.00;0.00;;;;;;;8.44;100.00;98760.84;4967379;28;20033;-74
2023/03/22 04:15:07;;;;;;;0.00;0.00;;;;;;;8.48;100.00;98765.44;4978482;28;20533;-74
2023/03/22 04:17:33;;;;;;;0.00;0.00;;;;;;;8.47;100.00;98750.22;4969028;28;20031;-74
2023/03/22 04:19:58;;;;;;;0.00;0.00;;;;;;;8.48;100.00;98757.25;4984854;28;20373;-75
2023/03/22 04:22:26;;;;;;;0.00;0.00;;;;;;;8.54;100.00;98758.84;4953402;28;20058;-75
2023/03/22 04:24:52;;;;;;;0.00;0.00;;;;;;;8.52;100.00;98752.03;4982632;28;20137;-75
2023/03/22 04:27:19;;;;;;;0.00;0.00;;;;;;;8.51;100.00;98740.34;4971465;28;20133;-75
2023/03/22 04:29:47;;;;;;;0.03;0.03;;;;;;;8.60;100.00;98753.28;4975588;28;20019;-75
2023/03/22 04:32:23;;;;;;;0.00;0.00;;;;;;;8.64;100.00;98748.88;4969138;28;20429;-75
2023/03/22 04:34:49;;;;;;;0.00;0.00;;;;;;;8.60;100.00;98748.69;4985262;28;20018;-75
2023/03/22 04:37:18;;;;;;;0.00;0.00;;;;;;;8.58;100.00;98722.81;4985195;28;20037;-75
2023/03/22 04:39:44;;;;;;;0.00;0.00;;;;;;;8.64;100.00;98729.81;4971894;28;20063;-76
2023/03/22 04:42:27;;;;;;;0.00;0.00;;;;;;;8.64;100.00;98716.97;4976067;28;20037;-76
2023/03/22 04:44:52;;;;;;;0.00;0.00;;;;;;;8.64;100.00;98727.88;4977915;28;20104;-75
2023/03/22 04:47:18;;;;;;;0.00;0.00;;;;;;;8.65;100.00;98712.38;4963225;28;20473;-76
2023/03/22 04:49:44;;;;;;;0.00;0.00;;;;;;;8.72;100.00;98789.13;4972120;28;20534;-76
2023/03/22 04:52:12;;;;;;;0.00;0.00;;;;;;;8.66;100.00;98747.50;4973510;28;20408;-76
2023/03/22 04:54:37;;;;;;;0.00;0.00;;;;;;;8.68;100.00;98736.28;4976364;28;20062;-76
2023/03/22 04:57:15;;;;;;;0.00;0.00;;;;;;;8.68;100.00;98718.03;4966515;28;20408;-75
2023/03/22 04:59:43;;;;;;;0.00;0.00;;;;;;;8.78;100.00;98727.16;4971668;28;20068;-75
2023/03/22 05:02:09;;;;;;;0.00;0.00;;;;;;;8.82;100.00;98749.97;4992073;28;20030;-76
2023/03/22 05:04:52;;;;;;;0.00;0.00;;;;;;;8.73;100.00;98730.75;4987313;28;20541;-75
2023/03/22 05:07:17;;;;;;;0.00;0.00;;;;;;;8.81;100.00;98743.72;4986650;28;20031;-76
2023/03/22 05:09:42;;;;;;;0.00;0.00;;;;;;;8.85;100.00;98743.97;4950485;28;20034;-76
2023/03/22 05:12:08;;;;;;;0.00;0.00;;;;;;;8.84;100.00;98726.78;4980907;28;20046;-75
2023/03/22 05:14:44;;;;;;;0.00;0.00;;;;;;;8.88;100.00;98736.00;4982990;28;20026;-75
2023/03/22 05:17:10;;;;;;;0.00;0.00;;;;;;;8.84;100.00;98732.22;4983830;28;20457;-74
2023/03/22 05:19:38;;;;;;;0.00;0.00;;;;;;;8.93;100.00;98737.03;4966872;28;20026;-75
2023/03/22 05:22:05;;;;;;;0.00;0.00;;;;;;;9.03;100.00;98745.84;4949304;28;20058;-75
2023/03/22 05:24:38;;;;;;;0.00;0.00;;;;;;;8.96;100.00;98728.25;4983447;28;20077;-75
2023/03/22 05:27:04;;;;;;;0.00;0.00;;;;;;;9.15;100.00;98739.13;4983401;28;20054;-75
2023/03/22 05:29:35;;;;;;;0.00;0.00;;;;;;;9.06;100.00;98730.81;4981118;28;20062;-75
2023/03/22 05:32:02;;;;;;;0.00;0.00;;;;;;;9.13;100.00;98725.78;4992403;28;20452;-75
2023/03/22 05:34:34;;;;;;;0.00;0.00;;;;;;;9.06;100.00;98725.34;4972250;28;20069;-75
2023/03/22 05:37:03;;;;;;;0.00;0.00;;;;;;;9.05;100.00;98705.47;4980178;28;20026;-74
2023/03/22 05:39:31;;;;;;;0.00;0.00;;;;;;;9.10;100.00;98729.13;4978450;28;20045;-74
2023/03/22 05:41:56;;;;;;;0.00;0.00;;;;;;;9.08;100.00;98710.31;4964045;28;20034;-74
2023/03/22 05:44:24;;;;;;;0.00;0.00;;;;;;;9.09;100.00;98716.59;4980887;28;20651;-73
2023/03/22 05:46:49;;;;;;;0.00;0.00;;;;;;;9.05;100.00;98701.91;4957676;28;20026;-74
2023/03/22 05:49:17;;;;;;;0.00;0.00;;;;;;;9.15;100.00;98688.09;4987881;28;20372;-73
2023/03/22 05:51:43;;;;;;;0.00;0.00;;;;;;;9.22;100.00;98704.91;4951800;28;20169;-75
2023/03/22 05:54:08;;;;;;;0.00;0.00;;;;;;;9.24;100.00;98740.88;4972347;28;20101;-75
2023/03/22 05:56:34;;;;;;;0.00;0.00;;;;;;;9.15;100.00;98688.09;4973049;28;20388;-74
2023/03/22 05:59:00;;;;;;;0.00;0.00;;;;;;;9.27;100.00;98761.28;4978321;28;20516;-73
2023/03/22 06:01:28;;;;;;;0.00;0.00;;;;;;;9.17;100.00;98691.38;4987126;28;20034;-76
2023/03/22 06:03:53;;;;;;;0.00;0.00;;;;;;;9.20;100.00;98696.22;4970111;28;20026;-74
2023/03/22 06:06:19;;;;;;;0.00;0.00;;;;;;;9.30;100.00;98703.44;4986680;28;20555;-74
2023/03/22 06:08:46;;;;;;;0.00;0.00;;;;;;;9.21;100.00;98706.03;4974494;28;20038;-75
2023/03/22 06:11:12;;;;;;;0.00;0.00;;;;;;;9.35;100.00;98713.44;4959834;28;20488;-74
2023/03/22 06:13:40;;;;;;;0.00;0.00;;;;;;;9.31;100.00;98717.88;4955857;28;20026;-74
2023/03/22 06:16:05;;;;;;;0.00;0.00;;;;;;;9.29;100.00;98704.53;4963746;28;20696;-75
2023/03/22 06:18:32;;;;;;;0.00;0.00;;;;;;;9.36;100.00;98720.47;4978816;28;20034;-74
2023/03/22 06:20:57;;;;;;;0.00;0.00;;;;;;;9.42;100.00;98757.50;4967589;28;20044;-75
2023/03/22 06:23:23;;;;;;;0.00;0.00;;;;;;;9.45;100.00;98746.00;4974820;28;20037;-76
2023/03/22 06:25:49;;;;;;;0.00;0.00;;;;;;;9.45;100.00;98702.34;4979996;28;20030;-75
2023/03/22 06:28:14;;;;;;;0.00;0.00;;;;;;;9.47;100.00;98700.09;4976623;28;20031;-75
2023/03/22 06:30:40;;;;;;;0.00;0.00;;;;;;;9.50;100.00;98715.06;4974358;28;20034;-75
2023/03/22 06:33:05;;;;;;;0.00;0.00;;;;;;;9.55;100.00;98718.53;4972343;28;20117;-76
2023/03/22 06:35:34;;;;;;;0.00;0.00;;;;;;;9.58;100.00;98731.56;4971547;28;20038;-75
2023/03/22 06:38:00;;;;;;;0.00;0.00;;;;;;;9.50;100.00;98737.69;4977121;28;20034;-74
2023/03/22 06:40:26;;;;;;;0.00;0.00;;;;;;;9.61;100.00;98721.97;4971717;28;20030;-75
2023/03/22 06:43:00;;;;;;;0.00;0.00;;;;;;;9.61;100.00;98720.03;4982882;28;20041;-75
2023/03/22 06:45:26;;;;;;;0.00;0.00;;;;;;;9.63;100.00;98724.41;4971362;28;20061;-77
2023/03/22 06:47:51;;;;;;;0.00;0.00;;;;;;;9.64;100.00;98712.34;4967734;28;20407;-74
2023/03/22 06:50:17;;;;;;;0.00;0.00;;;;;;;9.68;100.00;98732.47;4968886;28;20023;-76
2023/03/22 06:52:45;;;;;;;0.00;0.00;;;;;;;9.70;100.00;98746.66;4954513;28;20038;-76
2023/03/22 06:55:12;;;;;;;0.00;0.00;;;;;;;9.76;100.00;98737.25;4966593;28;20053;-76
2023/03/22 06:57:38;;;;;;;0.00;0.00;;;;;;;9.83;100.00;98745.84;4970946;28;20088;-77
2023/03/22 07:00:04;;;;;;;0.00;0.00;;;;;;;9.88;100.00;98762.13;4967664;28;20026;-77
2023/03/22 07:02:29;;;;;;;0.00;0.00;;;;;;;9.96;100.00;98749.69;4977635;28;20023;-77
2023/03/22 07:04:55;;;;;;;0.00;0.00;;;;;;;10.02;100.00;98758.59;4970845;28;20061;-77
2023/03/22 07:07:20;;;;;;;0.00;0.00;;;;;;;10.07;100.00;98767.50;4965470;28;20077;-76
2023/03/22 07:09:56;;;;;;;0.00;0.00;;;;;;;10.07;100.00;98766.69;4955075;28;20022;-76
2023/03/22 07:12:21;;;;;;;0.00;0.00;;;;;;;10.18;100.00;98773.56;4931479;28;20061;-75
2023/03/22 07:14:54;;;;;;;0.00;0.00;;;;;;;10.11;100.00;98757.56;4945752;28;20031;-75
2023/03/22 07:17:20;;;;;;;0.00;0.00;;;;;;;10.28;100.00;98795.22;4961789;28;20076;-75
2023/03/22 07:19:45;;;;;;;0.00;0.00;;;;;;;10.33;100.00;98779.84;4958237;28;20023;-75
2023/03/22 07:22:11;;;;;;;0.00;0.00;;;;;;;10.44;100.00;98786.72;4954611;28;20046;-74
2023/03/22 07:24:49;;;;;;;;;;;;;;;;;;;;;
2023/03/22 07:27:18;;;;;;;0.00;0.00;;;;;;;10.55;100.00;98781.88;4971776;28;20026;-76
2023/03/22 07:29:46;;;;;;;0.00;0.00;;;;;;;10.55;100.00;98788.13;4968139;28;20018;-75
2023/03/22 07:32:15;;;;;;;0.00;0.00;;;;;;;10.59;100.00;98794.63;4972869;28;20045;-76
2023/03/22 07:34:40;;;;;;;0.00;0.00;;;;;;;10.68;100.00;98796.66;4965800;28;20030;-75
2023/03/22 07:37:07;;;;;;;0.03;0.03;;;;;;;10.76;100.00;98774.03;4983239;28;20045;-75
2023/03/22 07:39:33;;;;;;;0.00;0.00;;;;;;;10.90;100.00;98796.69;4970973;28;20056;-77
2023/03/22 07:41:58;;;;;;;0.00;0.00;;;;;;;10.99;100.00;98792.13;4958669;28;20049;-76
2023/03/22 07:44:46;;;;;;;0.00;0.00;;;;;;;11.11;100.00;98793.47;4990265;28;20042;-73
2023/03/22 07:47:10;;;;;;;0.00;0.00;;;;;;;11.37;100.00;98803.81;5001492;28;22126;-74
2023/03/22 07:49:36;;;;;;;0.00;0.00;;;;;;;11.50;100.00;98801.00;5002649;28;20032;-73
2023/03/22 07:52:05;;;;;;;0.00;0.00;;;;;;;11.56;100.00;98788.00;4985658;28;20022;-75
2023/03/22 07:54:30;;;;;;;0.03;0.03;;;;;;;11.64;100.00;98800.16;4980360;28;20093;-77
2023/03/22 07:56:56;;;;;;;0.00;0.00;;;;;;;11.77;100.00;98812.94;4952308;28;20013;-76
2023/03/22 07:59:24;;;;;;;0.00;0.00;;;;;;;11.72;100.00;98793.09;4982214;28;20033;-77
2023/03/22 08:01:50;;;;;;;0.00;0.00;;;;;;;11.68;100.00;98788.25;5006579;28;20053;-77
2023/03/22 08:04:19;;;;;;;0.00;0.00;;;;;;;11.68;100.00;98785.53;4981115;28;20457;-78
2023/03/22 08:06:45;;;;;;;0.00;0.00;;;;;;;11.87;100.00;98800.91;4973454;28;20108;-77
2023/03/22 08:09:11;;;;;;;0.00;0.00;;;;;;;11.93;100.00;98796.97;4965295;28;20469;-78
2023/03/22 08:11:36;;;;;;;0.00;0.00;;;;;;;11.98;100.00;98809.72;4980383;28;20018;-77
2023/03/22 08:14:01;;;;;;;0.00;0.00;;;;;;;11.92;100.00;98810.94;5001506;28;20026;-77
2023/03/22 08:16:37;;;;;;;0.00;0.00;;;;;;;11.90;100.00;98827.69;4990006;28;20109;-77
2023/03/22 08:19:02;;;;;;;0.00;0.00;;;;;;;11.95;100.00;98824.84;4968192;28;20567;-77
2023/03/22 08:21:28;;;;;;;0.00;0.00;;;;;;;12.01;100.00;98818.09;4999371;28;20069;-78
2023/03/22 08:23:53;;;;;;;0.00;0.00;;;;;;;12.09;100.00;98821.19;4956545;28;20707;-78
2023/03/22 08:26:26;;;;;;;0.00;0.00;;;;;;;12.13;100.00;98813.97;4984545;28;20117;-78
2023/03/22 08:28:51;;;;;;;0.00;0.00;;;;;;;12.18;100.00;98813.84;4990437;28;20503;-77
2023/03/22 08:31:17;;;;;;;0.00;0.00;;;;;;;12.14;100.00;98812.84;4969100;28;20018;-77
2023/03/22 08:33:43;;;;;;;0.00;0.00;;;;;;;12.25;100.00;98829.81;4980194;28;20019;-78
2023/03/22 08:36:12;;;;;;;0.00;0.00;;;;;;;12.31;100.00;98834.00;4986609;28;20026;-78
2023/03/22 08:38:41;;;;;;;0.00;0.00;;;;;;;12.27;100.00;98833.06;4992644;28;20054;-78
2023/03/22 08:41:10;;;;;;;0.00;0.00;;;;;;;12.37;100.00;98838.25;4979801;28;20553;-77
2023/03/22 08:43:36;;;;;;;0.00;0.00;;;;;;;12.43;100.00;98833.44;5000594;28;20052;-77
2023/03/22 08:46:02;;;;;;;0.00;0.00;;;;;;;12.50;100.00;98829.09;5003552;28;20440;-78
2023/03/22 08:48:29;;;;;;;0.00;0.00;;;;;;;12.57;100.00;98820.41;4999119;28;20026;-77
2023/03/22 08:50:55;;;;;;;0.00;0.00;;;;;;;12.61;100.00;98829.59;4956161;28;20117;-77
2023/03/22 08:53:23;;;;;;;0.00;0.00;;;;;;;12.65;100.00;98825.09;4991180;28;20038;-76
2023/03/22 08:55:49;;;;;;;0.08;0.08;;;;;;;12.66;100.00;98821.25;4990220;28;20538;-76
2023/03/22 08:58:17;;;;;;;0.00;0.00;;;;;;;12.62;100.00;98827.69;4996286;28;20101;-75
2023/03/22 09:00:43;;;;;;;0.10;0.10;;;;;;;12.54;100.00;98837.50;4978085;28;20545;-77
2023/03/22 09:03:08;;;;;;;0.00;0.00;;;;;;;12.47;100.00;98835.22;5004216;28;20030;-77
2023/03/22 09:05:34;;;;;;;0.00;0.00;;;;;;;12.49;100.00;98826.69;4983135;28;20046;-77
2023/03/22 09:08:00;;;;;;;0.00;0.00;;;;;;;12.18;100.00;98824.78;4989431;28;20052;-76
2023/03/22 09:10:36;;;;;;;0.00;0.00;;;;;;;12.01;100.00;98831.00;4956977;28;20554;-78
2023/03/22 09:13:02;;;;;;;0.00;0.00;;;;;;;11.75;100.00;98839.81;4994360;28;20372;-77
2023/03/22 09:15:27;;;;;;;0.00;0.00;;;;;;;11.52;100.00;98833.53;4992775;28;20033;-77
2023/03/22 09:17:53;;;;;;;0.00;0.00;;;;;;;12.23;100.00;98827.38;4990723;28;20116;-78
2023/03/22 09:20:24;;;;;;;0.00;0.00;;;;;;;13.86;100.00;98830.19;5001899;28;20494;-79
2023/03/22 09:22:51;;;;;;;0.00;0.00;;;;;;;15.55;90.82;98850.63;4975563;28;20025;-77
2023/03/22 09:25:21;;;;;;;0.00;0.00;;;;;;;16.87;86.75;98823.19;5000885;28;20022;-77
2023/03/22 09:27:49;;;;;;;0.00;0.00;;;;;;;19.57;73.62;98842.34;4973846;28;20034;-77
2023/03/22 09:30:17;;;;;;;0.00;0.00;;;;;;;21.99;62.92;98833.81;4977236;28;20111;-74
2023/03/22 09:32:42;;;;;;;0.00;0.00;;;;;;;24.02;54.81;98826.34;4976506;28;20165;-75
2023/03/22 09:35:10;;;;;;;0.00;0.00;;;;;;;24.57;52.40;98833.59;4998879;28;20100;-75
2023/03/22 09:37:36;;;;;;;0.00;0.00;;;;;;;25.40;46.89;98830.66;4988015;28;20048;-75
2023/03/22 09:40:04;;;;;;;0.00;0.00;;;;;;;26.49;45.85;98828.06;4988536;28;20029;-78
2023/03/22 09:42:42;;;;;;;0.00;0.00;;;;;;;27.21;44.29;98830.19;4982167;28;20652;-77
2023/03/22 09:45:33;;;;;;;;;;;;;;;;;;;;;
2023/03/22 09:48:02;;;;;;;0.00;0.00;;;;;;;26.93;44.19;98840.50;4992031;28;20708;-78
2023/03/22 09:50:34;;;;;;;0.00;0.00;;;;;;;26.66;41.59;98826.28;4991444;28;20030;-78
2023/03/22 09:53:00;;;;;;;0.00;0.00;;;;;;;27.00;45.08;98834.81;4964196;28;20041;-78
2023/03/22 09:55:37;;;;;;;0.00;0.00;;;;;;;28.48;40.55;98843.38;4990793;28;20025;-77
2023/03/22 09:58:19;;;;;;;0.00;0.00;;;;;;;30.02;37.46;98839.69;5001450;28;20064;-77
2023/03/22 10:00:54;;;;;;;0.00;0.00;;;;;;;30.87;33.53;98840.03;4987494;28;20022;-78
2023/03/22 10:03:29;;;;;;;0.00;0.00;;;;;;;30.78;33.36;98864.06;4989757;28;20033;-77
2023/03/22 10:06:12;;;;;;;0.00;0.00;;;;;;;30.88;33.22;98861.38;4989646;28;20018;-77
2023/03/22 10:08:58;;;;;;;0.00;0.00;;;;;;;30.93;33.11;98843.94;4990449;28;20543;-75
2023/03/22 10:11:54;;;;;;;0.00;0.00;;;;;;;29.95;34.07;98856.75;5001242;28;20527;-76
2023/03/22 10:14:34;;;;;;;0.00;0.00;;;;;;;29.75;33.03;98854.69;5001383;28;20057;-76
2023/03/22 10:17:12;;;;;;;0.00;0.00;;;;;;;27.86;35.59;98849.06;4993256;28;20041;-76
2023/03/22 10:19:40;;;;;;;0.00;0.00;;;;;;;27.49;35.35;98859.16;4987765;28;20028;-74
2023/03/22 10:22:08;;;;;;;0.00;0.00;;;;;;;26.52;35.30;98832.00;4997984;28;20044;-76
2023/03/22 10:24:39;;;;;;;0.00;0.00;;;;;;;23.08;41.13;98830.69;5006274;28;20014;-76
2023/03/22 10:27:16;;;;;;;0.00;0.00;;;;;;;22.95;42.94;98835.00;5009103;28;20029;-75
2023/03/22 10:30:04;;;;;;;0.00;0.00;;;;;;;25.79;38.41;98834.50;4993252;28;20598;-74
2023/03/22 10:32:40;;;;;;;0.00;0.00;;;;;;;26.10;38.66;98818.72;4979763;28;20038;-76
2023/03/22 10:35:18;;;;;;;0.00;0.00;;;;;;;28.62;36.38;98843.16;4993581;28;20418;-75
2023/03/22 10:37:48;;;;;;;0.00;0.00;;;;;;;28.98;31.35;98859.41;4974753;28;20040;-75
2023/03/22 10:40:25;;;;;;;0.00;0.00;;;;;;;30.13;30.91;98850.69;4986434;28;20034;-76
2023/03/22 10:42:58;;;;;;;0.00;0.00;;;;;;;29.93;29.17;98859.19;5001538;28;20128;-76
2023/03/22 10:45:26;;;;;;;0.00;0.00;;;;;;;26.81;34.64;98864.25;4974841;28;20324;-75
2023/03/22 10:48:32;;;;;;;0.00;0.00;;;;;;;26.75;33.69;98856.69;4985863;28;20035;-75
2023/03/22 10:51:02;;;;;;;0.00;0.00;;;;;;;28.05;31.54;98861.66;4988110;28;20637;-74
2023/03/22 10:53:39;;;;;;;0.00;0.00;;;;;;;28.88;31.39;98854.75;4984521;28;20026;-74
2023/03/22 10:56:11;;;;;;;0.00;0.00;;;;;;;28.45;32.19;98849.84;4969989;28;20200;-76
2023/03/22 10:58:37;;;;;;;0.00;0.00;;;;;;;28.96;30.38;98850.59;4956981;28;20500;-75
2023/03/22 11:01:13;;;;;;;0.00;0.00;;;;;;;28.54;29.99;98841.66;4962745;28;20031;-77
2023/03/22 11:03:55;;;;;;;0.00;0.00;;;;;;;25.08;34.06;98842.69;4982715;28;20049;-76
2023/03/22 11:06:31;;;;;;;0.00;0.00;;;;;;;23.12;37.21;98845.50;4986679;28;20036;-77
2023/03/22 11:09:10;;;;;;;0.00;0.00;;;;;;;23.63;38.48;98837.38;4988546;28;20068;-77
2023/03/22 11:11:57;;;;;;;0.00;0.00;;;;;;;25.28;35.42;98847.88;4973613;28;20520;-77
2023/03/22 11:14:29;;;;;;;0.00;0.00;;;;;;;23.70;37.48;98831.81;4979985;28;20049;-76
2023/03/22 11:16:58;;;;;;;0.00;0.00;;;;;;;23.84;39.50;98842.22;4964958;28;20037;-75
2023/03/22 11:19:27;;;;;;;0.00;0.00;;;;;;;25.89;37.26;98844.84;4979749;28;20132;-76
2023/03/22 11:21:57;;;;;;;0.00;0.00;;;;;;;24.39;36.60;98829.97;4976125;28;20364;-75
2023/03/22 11:24:29;;;;;;;0.00;0.00;;;;;;;21.45;40.55;98828.38;4971540;28;20126;-77
2023/03/22 11:27:44;;;;;;;0.00;0.00;;;;;;;19.21;44.89;98838.81;4984880;28;20030;-76
2023/03/22 11:30:21;;;;;;;0.00;0.00;;;;;;;18.89;47.26;98813.97;4964095;28;20038;-75
2023/03/22 11:32:48;;;;;;;0.00;0.00;;;;;;;20.41;44.53;98810.19;4981100;28;20043;-75
2023/03/22 11:35:15;;;;;;;0.00;0.00;;;;;;;21.16;43.80;98827.22;4986548;28;20030;-75
2023/03/22 11:37:54;;;;;;;0.00;0.00;;;;;;;21.72;42.07;98819.19;4984945;28;20117;-77
2023/03/22 11:40:22;;;;;;;0.00;0.00;;;;;;;21.89;42.25;98817.75;4975125;28;20026;-76
2023/03/22 11:42:56;;;;;;;0.00;0.00;;;;;;;21.73;40.48;98821.59;4967948;28;20468;-76
2023/03/22 11:45:35;;;;;;;0.00;0.00;;;;;;;22.39;41.99;98807.13;4993912;28;20049;-77
2023/03/22 11:48:04;;;;;;;0.00;0.00;;;;;;;25.78;36.07;98818.91;4989742;28;20038;-76
2023/03/22 11:50:34;;;;;;;0.00;0.00;;;;;;;24.18;36.60;98823.19;4983038;28;20014;-76
2023/03/22 11:53:01;;;;;;;0.00;0.00;;;;;;;24.39;36.88;98829.97;4987010;28;20069;-76
2023/03/22 11:55:30;;;;;;;0.00;0.00;;;;;;;24.81;37.71;98825.59;4989997;28;20062;-76
2023/03/22 11:57:56;;;;;;;0.00;0.00;;;;;;;27.14;35.10;98828.25;4969843;28;20034;-74
2023/03/22 12:00:27;;;;;;;0.00;0.00;;;;;;;28.23;31.48;98827.69;4969590;28;20468;-76
2023/03/22 12:03:12;;;;;;;0.00;0.00;;;;;;;29.17;29.87;98849.41;5001878;28;20022;-74